createdAt,value
2022-10-22T00:01:05.391Z,100974.47
2022-10-22T00:03:32.345Z,100971.47
2022-10-22T00:05:59.111Z,100981.91
2022-10-22T00:08:25.880Z,100986.31
2022-10-22T00:10:53.003Z,100986.91
2022-10-22T00:13:19.933Z,100978.34
2022-10-22T00:15:46.709Z,100984.97
2022-10-22T00:18:13.493Z,100986.53
2022-10-22T00:20:40.364Z,100982.13
2022-10-22T00:23:07.233Z,100965.31
2022-10-22T00:25:35.517Z,100981.06
2022-10-22T00:28:02.941Z,100966.72
2022-10-22T00:30:29.721Z,100969.91
2022-10-22T00:32:56.503Z,100968.16
2022-10-22T00:35:23.301Z,100972.28
2022-10-22T00:37:50.112Z,100964.44
2022-10-22T00:40:16.952Z,100961.84
2022-10-22T00:42:44.054Z,100962.56
2022-10-22T00:45:10.800Z,100959.00
2022-10-22T00:47:57.867Z,100959.72
2022-10-22T00:50:28.556Z,100948.44
2022-10-22T00:52:55.779Z,100946.41
2022-10-22T00:55:22.783Z,100933.72
2022-10-22T00:57:49.614Z,100937.03
2022-10-22T01:00:16.670Z,100933.59
2022-10-22T01:02:43.828Z,100941.06
2022-10-22T01:05:10.850Z,100944.25
2022-10-22T01:07:48.566Z,100944.13
2022-10-22T01:10:18.743Z,100932.16
2022-10-22T01:13:05.509Z,100926.81
2022-10-22T01:15:41.171Z,100932.50
2022-10-22T01:18:20.691Z,100922.31
2022-10-22T01:21:10.103Z,100918.47
2022-10-22T01:23:36.803Z,100920.03
2022-10-22T01:26:40.731Z,100917.28
2022-10-22T01:29:13.133Z,100916.31
2022-10-22T01:31:44.478Z,100918.00
2022-10-22T01:34:12.223Z,100924.88
2022-10-22T01:36:39.007Z,100918.94
2022-10-22T01:39:05.811Z,100922.13
2022-10-22T01:41:32.601Z,100923.78
2022-10-22T01:43:59.362Z,100919.41
2022-10-22T01:46:29.045Z,100918.81
2022-10-22T01:49:17.631Z,100919.50
2022-10-22T01:52:15.138Z,100923.66
2022-10-22T01:55:15.625Z,100900.28
2022-10-22T01:58:07.322Z,100904.41
2022-10-22T02:00:34.161Z,100894.13
2022-10-22T02:03:04.321Z,100900.06
2022-10-22T02:05:50.003Z,100902.66
2022-10-22T02:08:19.543Z,100908.69
2022-10-22T02:10:46.891Z,100905.28
2022-10-22T02:13:18.404Z,100908.69
2022-10-22T02:15:46.244Z,100905.13
2022-10-22T02:18:13.253Z,100903.34
2022-10-22T02:20:41.296Z,100902.38
2022-10-22T02:23:08.281Z,100900.88
2022-10-22T02:25:37.251Z,100898.38
2022-10-22T02:28:33.941Z,100897.16
2022-10-22T02:31:24.661Z,100898.94
2022-10-22T02:33:53.344Z,100898.13
2022-10-22T02:36:20.203Z,100896.47
2022-10-22T02:38:47.561Z,100902.38
2022-10-22T02:41:16.091Z,100905.13
2022-10-22T02:43:44.003Z,100907.59
2022-10-22T02:46:11.142Z,100905.94
2022-10-22T02:48:37.956Z,100898.13
2022-10-22T02:51:04.823Z,100885.00
2022-10-22T02:53:31.575Z,100905.00
2022-10-22T02:55:58.989Z,100904.31
2022-10-22T02:58:25.814Z,100899.19
2022-10-22T03:00:52.623Z,100900.97
2022-10-22T03:03:19.427Z,100904.69
2022-10-22T03:05:46.233Z,100895.00
2022-10-22T03:08:13.384Z,100908.38
2022-10-22T03:10:40.165Z,100912.19
2022-10-22T03:13:07.011Z,100913.03
2022-10-22T03:15:33.816Z,100915.06
2022-10-22T03:18:00.663Z,100914.59
2022-10-22T03:20:27.672Z,100915.41
2022-10-22T03:22:54.443Z,100901.19
2022-10-22T03:25:22.731Z,100907.84
2022-10-22T03:27:50.010Z,100908.91
2022-10-22T03:30:16.793Z,100905.84
2022-10-22T03:32:43.601Z,100905.25
2022-10-22T03:35:10.339Z,100904.69
2022-10-22T03:37:37.419Z,100893.31
2022-10-22T03:40:05.462Z,100901.63
2022-10-22T03:42:32.374Z,100904.47
2022-10-22T03:44:59.141Z,100901.41
2022-10-22T03:47:25.969Z,100911.72
2022-10-22T03:49:52.786Z,100901.66
2022-10-22T03:52:19.563Z,100916.13
2022-10-22T03:54:46.404Z,100921.34
2022-10-22T03:57:13.244Z,100923.13
2022-10-22T03:59:41.674Z,100922.16
2022-10-22T04:02:08.604Z,100920.25
2022-10-22T04:04:36.096Z,100927.13
2022-10-22T04:07:03.143Z,100926.06
2022-10-22T04:09:35.902Z,100920.72
2022-10-22T04:12:02.791Z,100907.09
2022-10-22T04:14:29.551Z,100915.13
2022-10-22T04:16:56.383Z,100908.00
2022-10-22T04:19:23.171Z,100897.31
2022-10-22T04:21:49.930Z,100899.78
2022-10-22T04:24:16.791Z,100889.34
2022-10-22T04:26:43.621Z,100881.66
2022-10-22T04:29:13.570Z,100884.28
2022-10-22T04:31:43.031Z,100883.81
2022-10-22T04:34:09.825Z,100894.25
2022-10-22T04:36:36.603Z,100899.72
2022-10-22T04:39:03.631Z,100905.88
2022-10-22T04:41:37.260Z,100904.94
2022-10-22T04:44:04.299Z,100892.16
2022-10-22T04:46:32.410Z,100888.81
2022-10-22T04:48:59.233Z,100897.63
2022-10-22T04:51:26.563Z,100903.50
2022-10-22T04:53:53.723Z,100908.03
2022-10-22T04:56:25.239Z,100903.75
2022-10-22T04:58:54.292Z,100893.59
2022-10-22T05:01:22.004Z,100891.91
2022-10-22T05:03:49.539Z,100890.50
2022-10-22T05:06:16.764Z,100894.09
2022-10-22T05:08:43.685Z,100906.41
2022-10-22T05:11:18.154Z,100883.78
2022-10-22T05:13:44.993Z,100896.22
2022-10-22T05:16:11.962Z,100875.63
2022-10-22T05:18:39.623Z,100869.56
2022-10-22T05:21:10.639Z,100866.00
2022-10-22T05:23:37.492Z,100875.47
2022-10-22T05:26:05.094Z,100875.34
2022-10-22T05:28:32.023Z,100877.03
2022-10-22T05:30:59.417Z,100865.88
2022-10-22T05:33:27.215Z,100862.19
2022-10-22T05:35:54.063Z,100846.66
2022-10-22T05:38:20.911Z,100852.97
2022-10-22T05:40:47.712Z,100868.72
2022-10-22T05:43:14.542Z,100883.44
2022-10-22T05:45:41.802Z,100889.72
2022-10-22T05:48:09.827Z,100893.41
2022-10-22T05:50:37.418Z,100890.78
2022-10-22T05:53:07.260Z,100906.06
2022-10-22T05:55:37.181Z,100918.50
2022-10-22T05:58:04.506Z,100923.56
2022-10-22T06:00:31.284Z,100914.63
2022-10-22T06:02:58.052Z,100902.25
2022-10-22T06:05:24.867Z,100910.03
2022-10-22T06:07:51.688Z,100907.94
2022-10-22T06:10:19.772Z,100897.81
2022-10-22T06:12:46.605Z,100902.34
2022-10-22T06:15:14.283Z,100907.34
2022-10-22T06:17:41.079Z,100901.78
2022-10-22T06:20:08.668Z,100899.94
2022-10-22T06:22:35.452Z,100915.63
2022-10-22T06:25:02.255Z,100928.75
2022-10-22T06:27:29.025Z,100914.34
2022-10-22T06:29:55.811Z,100930.25
2022-10-22T06:32:22.636Z,100924.34
2022-10-22T06:34:50.563Z,100932.78
2022-10-22T06:37:17.583Z,100933.75
2022-10-22T06:39:44.407Z,100923.84
2022-10-22T06:42:11.217Z,100923.34
2022-10-22T06:44:37.973Z,100919.75
2022-10-22T06:47:04.914Z,100917.97
2022-10-22T06:49:31.723Z,100921.28
2022-10-22T06:51:58.504Z,100918.22
2022-10-22T06:54:25.307Z,100918.50
2022-10-22T06:56:52.070Z,100906.88
2022-10-22T06:59:18.825Z,100910.56
2022-10-22T07:01:45.606Z,100911.50
2022-10-22T07:04:12.511Z,100901.56
2022-10-22T07:06:39.301Z,100906.91
2022-10-22T07:09:06.294Z,100903.75
2022-10-22T07:11:39.191Z,100912.97
2022-10-22T07:14:06.004Z,100919.03
2022-10-22T07:16:32.811Z,100923.47
2022-10-22T07:19:01.060Z,100916.84
2022-10-22T07:21:27.976Z,100923.19
2022-10-22T07:23:55.006Z,100929.03
2022-10-22T07:26:22.215Z,100945.72
2022-10-22T07:28:49.005Z,100940.75
2022-10-22T07:31:16.147Z,100943.53
2022-10-22T07:33:43.077Z,100942.16
2022-10-22T07:36:12.274Z,100930.13
2022-10-22T07:38:39.058Z,100943.03
2022-10-22T07:41:05.987Z,100934.47
2022-10-22T07:43:32.989Z,100936.66
2022-10-22T07:46:00.493Z,100943.00
2022-10-22T07:48:27.340Z,100933.72
2022-10-22T07:50:54.193Z,100938.78
2022-10-22T07:53:21.511Z,100939.00
2022-10-22T07:55:49.747Z,100930.44
2022-10-22T07:58:17.714Z,100932.75
2022-10-22T08:00:44.888Z,100935.97
2022-10-22T08:03:12.188Z,100929.38
2022-10-22T08:05:39.473Z,100924.13
2022-10-22T08:08:07.067Z,100915.81
2022-10-22T08:10:34.113Z,100923.19
2022-10-22T08:13:00.930Z,100933.47
2022-10-22T08:15:27.836Z,100929.91
2022-10-22T08:17:54.691Z,100930.59
2022-10-22T08:20:21.527Z,100923.66
2022-10-22T08:22:48.588Z,100930.25
2022-10-22T08:25:15.708Z,100925.41
2022-10-22T08:27:43.055Z,100929.06
2022-10-22T08:30:10.869Z,100911.84
2022-10-22T08:32:37.752Z,100914.03
2022-10-22T08:35:04.868Z,100905.22
2022-10-22T08:37:31.734Z,100910.50
2022-10-22T08:39:58.566Z,100914.66
2022-10-22T08:42:48.389Z,100931.97
2022-10-22T08:45:33.989Z,100923.44
2022-10-22T08:48:37.847Z,100928.78
2022-10-22T08:51:04.849Z,100923.00
2022-10-22T08:53:42.131Z,100931.25
2022-10-22T08:56:08.929Z,100929.59
2022-10-22T08:58:43.428Z,100915.94
2022-10-22T09:01:43.668Z,100925.81
2022-10-22T09:04:25.604Z,100923.88
2022-10-22T09:06:54.446Z,100913.16
2022-10-22T09:09:21.708Z,100918.59
2022-10-22T09:11:52.469Z,100927.81
2022-10-22T09:14:23.357Z,100922.56
2022-10-22T09:16:59.074Z,100921.78
2022-10-22T09:19:49.610Z,100932.50
2022-10-22T09:22:32.261Z,100940.56
2022-10-22T09:25:02.269Z,100942.03
2022-10-22T09:27:30.316Z,100944.03
2022-10-22T09:29:57.168Z,100936.78
2022-10-22T09:32:24.110Z,100947.31
2022-10-22T09:34:50.967Z,100949.28
2022-10-22T09:37:19.228Z,100950.75
2022-10-22T09:39:52.729Z,100941.66
2022-10-22T09:42:20.376Z,100944.91
2022-10-22T09:44:55.490Z,100944.00
2022-10-22T09:47:43.464Z,100943.94
2022-10-22T09:50:44.375Z,100946.03
2022-10-22T09:53:28.870Z,100953.63
2022-10-22T09:56:00.204Z,100950.16
2022-10-22T09:58:27.265Z,100949.97
2022-10-22T10:00:58.989Z,100941.34
2022-10-22T10:03:31.364Z,100930.91
2022-10-22T10:06:03.001Z,100928.91
2022-10-22T10:08:32.792Z,100923.94
2022-10-22T10:11:15.114Z,100930.22
2022-10-22T10:14:06.891Z,100925.47
2022-10-22T10:16:58.374Z,100921.09
2022-10-22T10:19:42.110Z,100914.25
2022-10-22T10:22:11.814Z,100907.50
2022-10-22T10:24:57.393Z,100909.69
2022-10-22T10:27:49.449Z,100909.13
2022-10-22T10:30:21.229Z,100903.66
2022-10-22T10:33:06.570Z,100914.25
2022-10-22T10:36:07.214Z,100903.63
2022-10-22T10:39:18.769Z,100908.75
2022-10-22T10:42:22.774Z,100918.16
2022-10-22T10:45:09.887Z,100918.59
2022-10-22T10:48:14.271Z,100915.28
2022-10-22T10:51:00.734Z,100908.03
2022-10-22T10:53:48.790Z,100910.44
2022-10-22T10:56:24.388Z,100916.59
2022-10-22T10:59:02.391Z,100914.59
2022-10-22T11:01:56.774Z,100904.25
2022-10-22T11:04:42.528Z,100905.78
2022-10-22T11:07:30.040Z,100900.06
2022-10-22T11:10:27.558Z,100900.25
2022-10-22T11:12:57.829Z,100911.38
2022-10-22T11:15:32.332Z,100902.69
2022-10-22T11:18:11.412Z,100907.22
2022-10-22T11:21:07.330Z,100899.91
2022-10-22T11:23:38.692Z,100879.53
2022-10-22T11:26:06.750Z,100898.19
2022-10-22T11:28:37.310Z,100897.19
2022-10-22T11:31:22.887Z,100903.56
2022-10-22T11:34:09.867Z,100897.25
2022-10-22T11:36:48.587Z,100902.78
2022-10-22T11:39:34.112Z,100899.34
2022-10-22T11:42:04.169Z,100897.16
2022-10-22T11:44:32.575Z,100900.91
2022-10-22T11:47:08.729Z,100906.47
2022-10-22T11:49:46.708Z,100906.03
2022-10-22T11:52:32.768Z,100912.22
2022-10-22T11:55:02.309Z,100906.69
2022-10-22T11:57:37.679Z,100914.59
2022-10-22T12:00:34.116Z,100923.13
2022-10-22T12:03:06.111Z,100917.81
2022-10-22T12:05:35.040Z,100915.38
2022-10-22T12:08:14.845Z,100919.94
2022-10-22T12:11:16.733Z,100916.50
2022-10-22T12:14:14.313Z,100914.09
2022-10-22T12:16:56.262Z,100914.31
2022-10-22T12:19:24.310Z,100914.84
2022-10-22T12:21:56.289Z,100915.06
2022-10-22T12:24:24.017Z,100919.06
2022-10-22T12:26:52.780Z,100915.94
2022-10-22T12:29:22.809Z,100917.41
2022-10-22T12:31:49.711Z,100911.34
2022-10-22T12:34:22.510Z,100916.31
2022-10-22T12:36:50.509Z,100912.19
2022-10-22T12:39:19.552Z,100909.25
2022-10-22T12:41:46.592Z,100918.50
2022-10-22T12:44:15.217Z,100911.94
2022-10-22T12:46:42.889Z,100921.34
2022-10-22T12:49:37.011Z,100912.94
2022-10-22T12:52:05.230Z,100910.81
2022-10-22T12:54:33.171Z,100917.88
2022-10-22T12:57:00.488Z,100910.31
2022-10-22T12:59:33.629Z,100913.13
2022-10-22T13:02:00.491Z,100911.28
2022-10-22T13:04:28.530Z,100907.69
2022-10-22T13:07:15.751Z,100913.78
2022-10-22T13:09:57.290Z,100906.84
2022-10-22T13:12:28.660Z,100901.44
2022-10-22T13:14:55.588Z,100916.28
2022-10-22T13:17:41.255Z,100916.94
2022-10-22T13:20:23.651Z,100907.91
2022-10-22T13:23:04.171Z,100925.53
2022-10-22T13:25:33.087Z,100919.47
2022-10-22T13:28:18.312Z,100926.03
2022-10-22T13:31:01.375Z,100921.28
2022-10-22T13:33:44.148Z,100919.97
2022-10-22T13:36:17.110Z,100923.91
2022-10-22T13:38:44.534Z,100916.34
2022-10-22T13:41:34.053Z,100917.34
2022-10-22T13:44:00.912Z,100916.66
2022-10-22T13:46:29.181Z,100919.47
2022-10-22T13:48:56.289Z,100913.03
2022-10-22T13:51:35.032Z,100917.16
2022-10-22T13:54:01.907Z,100914.19
2022-10-22T13:56:28.749Z,100924.41
2022-10-22T13:58:55.830Z,100910.41
2022-10-22T14:01:24.469Z,100907.09
2022-10-22T14:03:52.586Z,100909.41
2022-10-22T14:06:19.867Z,100904.13
2022-10-22T14:08:50.621Z,100904.00
2022-10-22T14:11:17.811Z,100909.75
2022-10-22T14:13:44.746Z,100901.50
2022-10-22T14:16:23.151Z,100913.53
2022-10-22T14:18:50.028Z,100915.50
2022-10-22T14:21:17.069Z,100909.09
2022-10-22T14:23:45.429Z,100870.34
2022-10-22T14:26:33.281Z,100907.59
2022-10-22T14:29:16.230Z,100916.63
2022-10-22T14:31:44.359Z,100922.88
2022-10-22T14:34:12.668Z,100914.50
2022-10-22T14:36:39.507Z,100915.00
2022-10-22T14:39:06.347Z,100921.09
2022-10-22T14:41:33.272Z,100921.09
2022-10-22T14:44:00.247Z,100926.50
2022-10-22T14:46:27.089Z,100925.69
2022-10-22T14:48:53.951Z,100933.59
2022-10-22T14:51:21.290Z,100923.72
2022-10-22T14:53:48.414Z,100928.00
2022-10-22T14:56:17.089Z,100923.03
2022-10-22T14:58:43.929Z,100933.75
2022-10-22T15:01:10.873Z,100929.44
2022-10-22T15:03:37.792Z,100931.44
2022-10-22T15:06:04.768Z,100936.84
2022-10-22T15:08:31.686Z,100931.91
2022-10-22T15:10:59.456Z,100939.16
2022-10-22T15:13:27.149Z,100936.84
2022-10-22T15:15:53.934Z,100935.53
2022-10-22T15:18:20.810Z,100945.25
2022-10-22T15:20:55.329Z,100938.63
2022-10-22T15:23:23.710Z,100944.88
2022-10-22T15:25:50.586Z,100942.06
2022-10-22T15:28:17.412Z,100942.06
2022-10-22T15:30:44.249Z,100943.25
2022-10-22T15:33:11.130Z,100936.78
2022-10-22T15:35:37.995Z,100943.19
2022-10-22T15:38:09.228Z,100945.69
2022-10-22T15:40:36.130Z,100955.53
2022-10-22T15:43:03.009Z,100952.41
2022-10-22T15:45:29.910Z,100955.19
2022-10-22T15:47:56.750Z,100958.78
2022-10-22T15:50:23.631Z,100955.53
2022-10-22T15:52:50.490Z,100954.84
2022-10-22T15:55:17.439Z,100955.97
2022-10-22T15:57:44.732Z,100950.53
2022-10-22T16:00:12.491Z,100958.94
2022-10-22T16:02:39.378Z,100962.03
2022-10-22T16:05:06.747Z,100970.59
2022-10-22T16:07:33.578Z,100976.88
2022-10-22T16:10:01.666Z,100971.59
2022-10-22T16:12:28.620Z,100977.81
2022-10-22T16:14:55.449Z,100978.81
2022-10-22T16:17:22.294Z,100983.25
2022-10-22T16:19:49.509Z,100987.53
2022-10-22T16:22:16.292Z,100985.06
2022-10-22T16:24:43.196Z,100992.78
2022-10-22T16:27:10.167Z,100999.69
2022-10-22T16:29:38.356Z,101000.69
2022-10-22T16:32:05.410Z,101001.81
2022-10-22T16:34:32.250Z,101002.50
2022-10-22T16:36:59.069Z,100997.41
2022-10-22T16:39:25.911Z,101000.69
2022-10-22T16:41:52.830Z,101004.31
2022-10-22T16:44:19.667Z,101007.78
2022-10-22T16:46:46.512Z,101014.69
2022-10-22T16:49:13.347Z,101019.94
2022-10-22T16:51:40.196Z,101006.94
2022-10-22T16:54:09.859Z,101012.88
2022-10-22T16:56:39.090Z,101015.50
2022-10-22T16:59:06.353Z,101022.56
2022-10-22T17:01:37.955Z,101021.63
2022-10-22T17:04:07.507Z,101016.34
2022-10-22T17:06:34.410Z,101025.06
2022-10-22T17:09:01.417Z,101018.97
2022-10-22T17:11:34.686Z,101026.03
2022-10-22T17:14:02.232Z,101024.25
2022-10-22T17:16:29.070Z,101022.06
2022-10-22T17:18:56.050Z,101026.38
2022-10-22T17:21:23.052Z,101026.19
2022-10-22T17:23:52.331Z,101019.44
2022-10-22T17:26:21.071Z,101033.41
2022-10-22T17:28:48.420Z,101024.03
2022-10-22T17:31:19.409Z,101030.78
2022-10-22T17:33:46.429Z,101031.94
2022-10-22T17:36:13.775Z,101026.16
2022-10-22T17:38:41.415Z,101029.63
2022-10-22T17:41:12.502Z,101033.38
2022-10-22T17:43:41.481Z,101042.78
2022-10-22T17:46:10.909Z,101034.81
2022-10-22T17:48:37.752Z,101032.84
2022-10-22T17:51:08.492Z,101028.72
2022-10-22T17:53:35.466Z,101038.28
2022-10-22T17:56:02.749Z,101031.34
2022-10-22T17:58:30.699Z,101035.50
2022-10-22T18:00:58.179Z,101032.03
2022-10-22T18:03:25.311Z,101030.53
2022-10-22T18:05:52.169Z,101038.13
2022-10-22T18:08:18.973Z,101041.56
2022-10-22T18:10:45.832Z,101037.94
2022-10-22T18:13:12.692Z,101037.94
2022-10-22T18:15:39.534Z,101046.53
2022-10-22T18:18:06.476Z,101036.00
2022-10-22T18:20:33.331Z,101037.00
2022-10-22T18:23:00.159Z,101043.72
2022-10-22T18:25:27.097Z,101038.47
2022-10-22T18:27:53.989Z,101043.72
2022-10-22T18:30:20.814Z,101042.78
2022-10-22T18:32:47.600Z,101043.59
2022-10-22T18:35:14.551Z,101038.31
2022-10-22T18:37:42.554Z,101039.16
2022-10-22T18:40:14.321Z,101032.91
2022-10-22T18:42:41.850Z,101030.25
2022-10-22T18:45:09.395Z,101031.94
2022-10-22T18:47:40.129Z,101032.75
2022-10-22T18:50:07.707Z,101038.03
2022-10-22T18:52:34.669Z,101037.19
2022-10-22T18:55:01.512Z,101028.47
2022-10-22T18:57:28.387Z,101035.53
2022-10-22T18:59:58.567Z,101044.72
2022-10-22T19:02:26.490Z,101039.63
2022-10-22T19:04:53.329Z,101039.94
2022-10-22T19:07:20.248Z,101045.34
2022-10-22T19:09:47.112Z,101057.66
2022-10-22T19:12:15.310Z,101058.66
2022-10-22T19:14:42.833Z,101061.47
2022-10-22T19:17:09.729Z,101066.56
2022-10-22T19:19:36.633Z,101070.81
2022-10-22T19:22:04.711Z,101073.63
2022-10-22T19:24:31.621Z,101069.19
2022-10-22T19:26:58.468Z,101083.69
2022-10-22T19:29:25.313Z,101087.97
2022-10-22T19:31:52.193Z,101082.03
2022-10-22T19:34:19.654Z,101087.31
2022-10-22T19:36:46.655Z,101098.47
2022-10-22T19:39:16.589Z,101089.13
2022-10-22T19:41:43.694Z,101099.16
2022-10-22T19:44:10.639Z,101100.28
2022-10-22T19:46:37.489Z,101102.63
2022-10-22T19:49:04.590Z,101099.34
2022-10-22T19:51:33.477Z,101106.06
2022-10-22T19:54:05.192Z,101113.97
2022-10-22T19:56:32.749Z,101114.13
2022-10-22T19:58:59.749Z,101110.53
2022-10-22T20:01:26.912Z,101117.28
2022-10-22T20:03:53.870Z,101127.00
2022-10-22T20:06:21.915Z,101131.97
2022-10-22T20:08:51.067Z,101129.47
2022-10-22T20:11:23.210Z,101134.72
2022-10-22T20:13:52.238Z,101135.25
2022-10-22T20:16:23.219Z,101144.81
2022-10-22T20:18:50.991Z,101143.00
2022-10-22T20:21:19.430Z,101146.28
2022-10-22T20:23:46.811Z,101152.38
2022-10-22T20:26:13.711Z,101145.78
2022-10-22T20:28:40.532Z,101152.72
2022-10-22T20:31:14.829Z,101154.34
2022-10-22T20:33:41.746Z,101160.63
2022-10-22T20:36:09.891Z,101160.63
2022-10-22T20:41:05.253Z,101159.09
2022-10-22T20:43:32.391Z,101146.53
2022-10-22T20:45:59.491Z,101161.22
2022-10-22T20:48:29.450Z,101162.16
2022-10-22T20:50:56.634Z,101150.59
2022-10-22T20:53:23.587Z,101161.50
2022-10-22T20:55:51.449Z,101151.97
2022-10-22T20:58:18.267Z,101151.97
2022-10-22T21:00:45.929Z,101157.25
2022-10-22T21:03:13.170Z,101156.38
2022-10-22T21:05:40.124Z,101158.34
2022-10-22T21:08:06.931Z,101144.28
2022-10-22T21:10:33.997Z,101160.31
2022-10-22T21:13:00.827Z,101171.53
2022-10-22T21:15:27.944Z,101173.03
2022-10-22T21:17:54.950Z,101169.53
2022-10-22T21:20:24.608Z,101165.13
2022-10-22T21:22:51.976Z,101166.38
2022-10-22T21:25:18.874Z,101172.19
2022-10-22T21:27:45.668Z,101172.34
2022-10-22T21:30:12.972Z,101168.88
2022-10-22T21:32:40.216Z,101174.97
2022-10-22T21:35:07.473Z,101163.91
2022-10-22T21:37:35.311Z,101175.28
2022-10-22T21:40:03.833Z,101169.34
2022-10-22T21:42:30.748Z,101181.34
2022-10-22T21:44:57.667Z,101183.16
2022-10-22T21:47:24.611Z,101176.25
2022-10-22T21:49:51.511Z,101179.72
2022-10-22T21:52:18.370Z,101184.16
2022-10-22T21:54:45.188Z,101189.56
2022-10-22T21:57:12.071Z,101188.72
2022-10-22T21:59:38.909Z,101188.72
2022-10-22T22:02:06.080Z,101175.88
2022-10-22T22:04:33.069Z,101177.69
2022-10-22T22:06:59.897Z,101168.31
2022-10-22T22:09:26.830Z,101178.13
2022-10-22T22:11:53.649Z,101175.81
2022-10-22T22:14:20.470Z,101175.97
2022-10-22T22:16:47.348Z,101177.09
2022-10-22T22:19:14.169Z,101173.94
2022-10-22T22:21:41.187Z,101168.59
2022-10-22T22:24:09.112Z,101175.34
2022-10-22T22:26:35.929Z,101179.94
2022-10-22T22:29:02.808Z,101185.34
2022-10-22T22:31:31.649Z,101178.72
2022-10-22T22:34:00.116Z,101187.44
2022-10-22T22:36:27.012Z,101190.06
2022-10-22T22:38:55.529Z,101187.06
2022-10-22T22:41:22.709Z,101194.38
2022-10-22T22:43:49.637Z,101197.81
2022-10-22T22:46:16.574Z,101196.03
2022-10-22T22:48:43.507Z,101190.75
2022-10-22T22:51:10.370Z,101196.84
2022-10-22T22:53:37.188Z,101190.53
2022-10-22T22:56:11.832Z,101196.16
2022-10-22T22:58:40.551Z,101204.56
2022-10-22T23:01:24.922Z,101204.72
2022-10-22T23:03:59.459Z,101199.47
2022-10-22T23:06:27.271Z,101205.56
2022-10-22T23:08:54.402Z,101200.59
2022-10-22T23:11:21.749Z,101202.25
2022-10-22T23:13:51.136Z,101199.78
2022-10-22T23:16:21.678Z,101205.19
2022-10-22T23:18:48.832Z,101204.03
2022-10-22T23:21:17.771Z,101206.84
2022-10-22T23:23:52.168Z,101197.97
2022-10-22T23:26:21.007Z,101198.44
2022-10-22T23:28:47.948Z,101216.09
2022-10-22T23:31:15.887Z,101214.44
2022-10-22T23:33:42.990Z,101201.22
2022-10-22T23:36:10.326Z,101221.66
2022-10-22T23:38:37.848Z,101207.31
2022-10-22T23:41:05.171Z,101223.16
2022-10-22T23:43:32.349Z,101205.66
2022-10-22T23:45:59.188Z,101225.78
2022-10-22T23:48:26.030Z,101220.53
2022-10-22T23:53:19.707Z,101213.91
2022-10-22T23:55:46.529Z,101222.50
2022-10-22T23:58:13.330Z,101227.75
